Time;durP1;ratioP1;P1;durP2;ratioP2;P2;SDS_P1;SDS_P2;PMS_P1;PMS_P2;Temp;Humidity;BMP_temperature;BMP_pressure;BME280_temperature;BME280_humidity;BME280_pressure;Samples;Min_cycle;Max_cycle;Signal;HPM_P1;HPM_P2
2024/04/16 00:01:40;;;;;;;;;;;;;;;;;;5371403;26;20350;-67
2024/04/16 00:04:05;;;;;;;;;;;;;;;;;;5374759;26;19936;-68
2024/04/16 00:06:30;;;;;;;;;;;;;;;;;;5357763;26;21440;-67
2024/04/16 00:08:56;;;;;;;;;;;;;;;;;;5356365;26;20753;-69
2024/04/16 00:11:21;;;;;;;;;;;;;;;;;;5357453;26;21254;-68
2024/04/16 00:13:49;;;;;;;;;;;;;;;;;;5345610;26;19941;-69
2024/04/16 00:16:17;;;;;;;;;;;;;;;;;;5378150;26;19933;-70
2024/04/16 00:18:45;;;;;;;;;;;;;;;;;;5376903;26;20361;-69
2024/04/16 00:21:11;;;;;;;;;;;;;;;;;;5342679;26;20022;-67
2024/04/16 00:23:39;;;;;;;;;;;;;;;;;;5345079;26;19930;-71
2024/04/16 00:26:07;;;;;;;;;;;;;;;;;;5325194;26;19937;-68
2024/04/16 00:28:32;;;;;;;;;;;;;;;;;;5361609;26;20061;-71
2024/04/16 00:30:59;;;;;;;;;;;;;;;;;;5345452;26;19944;-69
2024/04/16 00:33:24;;;;;;;;;;;;;;;;;;5347504;26;20029;-68
2024/04/16 00:35:52;;;;;;;;;;;;;;;;;;5342820;26;19936;-69
2024/04/16 00:38:17;;;;;;;;;;;;;;;;;;5318361;26;20154;-70
2024/04/16 00:40:42;;;;;;;;;;;;;;;;;;5376825;26;20100;-68
2024/04/16 00:43:08;;;;;;;;;;;;;;;;;;5347534;26;19999;-69
2024/04/16 00:45:33;;;;;;;;;;;;;;;;;;5371478;26;19930;-70
2024/04/16 00:48:03;;;;;;;;;;;;;;;;;;5340022;26;20040;-73
2024/04/16 00:50:31;;;;;;;;;;;;;;;;;;5365112;26;19941;-70
2024/04/16 00:52:56;;;;;;;;;;;;;;;;;;5341987;26;19963;-69
2024/04/16 00:55:24;;;;;;;;;;;;;;;;;;5375979;26;19941;-72
2024/04/16 00:57:49;;;;;;;;;;;;;;;;;;5312673;26;20051;-70
2024/04/16 01:00:14;;;;;;;;;;;;;;;;;;5373158;26;19965;-71
2024/04/16 01:02:40;;;;;;;;;;;;;;;;;;5357109;26;20027;-69
2024/04/16 01:05:05;;;;;;;;;;;;;;;;;;5312295;26;19940;-70
2024/04/16 01:07:33;;;;;;;;;;;;;;;;;;5341979;26;19940;-70
2024/04/16 01:09:58;;;;;;;;;;;;;;;;;;5349040;26;20368;-71
2024/04/16 01:12:24;;;;;;;;;;;;;;;;;;5352664;26;19941;-69
2024/04/16 01:14:49;;;;;;;;;;;;;;;;;;5334140;26;20053;-69
2024/04/16 01:17:15;;;;;;;;;;;;;;;;;;5366227;26;19929;-70
2024/04/16 01:19:40;;;;;;;;;;;;;;;;;;5353757;26;19941;-73
2024/04/16 01:22:05;;;;;;;;;;;;;;;;;;5337947;26;20048;-69
2024/04/16 01:24:31;;;;;;;;;;;;;;;;;;5346516;26;19948;-68
2024/04/16 01:26:56;;;;;;;;;;;;;;;;;;5339980;26;19935;-69
2024/04/16 01:29:24;;;;;;;;;;;;;;;;;;5312655;26;19945;-68
2024/04/16 01:31:51;;;;;;;;;;;;;;;;;;5373514;26;19998;-68
2024/04/16 01:34:17;;;;;;;;;;;;;;;;;;5336244;26;19942;-66
2024/04/16 01:36:42;;;;;;;;;;;;;;;;;;5347480;26;19936;-67
2024/04/16 01:39:07;;;;;;;;;;;;;;;;;;5348494;26;22409;-69
2024/04/16 01:41:35;;;;;;;;;;;;;;;;;;5338372;26;20012;-69
2024/04/16 01:44:02;;;;;;;;;;;;;;;;;;5373159;26;20049;-69
2024/04/16 01:46:30;;;;;;;;;;;;;;;;;;5340970;26;20050;-68
2024/04/16 01:48:55;;;;;;;;;;;;;;;;;;5342360;26;20055;-68
2024/04/16 01:51:21;;;;;;;;;;;;;;;;;;5373644;26;20383;-68
2024/04/16 01:53:46;;;;;;;;;;;;;;;;;;5405389;26;20253;-67
2024/04/16 01:56:14;;;;;;;;;;;;;;;;;;5378624;26;20324;-67
2024/04/16 01:58:40;;;;;;;;;;;;;;;;;;5380608;26;19936;-67
2024/04/16 02:01:27;;;;;;;;;;;;;;;;;;5378118;26;20811;-68
2024/04/16 02:03:52;;;;;;;;;;;;;;;;;;5406178;26;19936;-67
2024/04/16 02:06:18;;;;;;;;;;;;;;;;;;5371006;26;19937;-69
2024/04/16 02:08:43;;;;;;;;;;;;;;;;;;5402601;26;20635;-68
2024/04/16 02:11:08;;;;;;;;;;;;;;;;;;5407103;26;19932;-67
2024/04/16 02:13:34;;;;;;;;;;;;;;;;;;5351908;26;19978;-67
2024/04/16 02:15:59;;;;;;;;;;;;;;;;;;5376471;26;19984;-68
2024/04/16 02:18:25;;;;;;;;;;;;;;;;;;5342517;26;20215;-67
2024/04/16 02:20:50;;;;;;;;;;;;;;;;;;5383380;26;19929;-67
2024/04/16 02:23:16;;;;;;;;;;;;;;;;;;5399512;26;20036;-67
2024/04/16 02:25:41;;;;;;;;;;;;;;;;;;5354469;26;19943;-67
2024/04/16 02:28:06;;;;;;;;;;;;;;;;;;5409194;26;20538;-68
2024/04/16 02:30:33;;;;;;;;;;;;;;;;;;5404754;26;20034;-69
2024/04/16 02:33:01;;;;;;;;;;;;;;;;;;5377080;26;19937;-67
2024/04/16 02:35:26;;;;;;;;;;;;;;;;;;5405870;26;20285;-67
2024/04/16 02:37:52;;;;;;;;;;;;;;;;;;5404182;26;19944;-66
2024/04/16 02:40:18;;;;;;;;;;;;;;;;;;5387708;26;19940;-67
2024/04/16 02:42:43;;;;;;;;;;;;;;;;;;5403860;26;20030;-69
2024/04/16 02:45:09;;;;;;;;;;;;;;;;;;5383385;26;20352;-68
2024/04/16 02:47:37;;;;;;;;;;;;;;;;;;5403954;26;19957;-65
2024/04/16 02:50:03;;;;;;;;;;;;;;;;;;5339316;26;19928;-67
2024/04/16 02:52:31;;;;;;;;;;;;;;;;;;5371420;26;20308;-68
2024/04/16 02:54:58;;;;;;;;;;;;;;;;;;5373449;26;19932;-67
2024/04/16 02:57:23;;;;;;;;;;;;;;;;;;5373495;26;20651;-68
2024/04/16 02:59:49;;;;;;;;;;;;;;;;;;5370858;26;19943;-67
2024/04/16 03:02:14;;;;;;;;;;;;;;;;;;5370142;26;19943;-66
2024/04/16 03:04:40;;;;;;;;;;;;;;;;;;5407472;26;20535;-67
2024/04/16 03:07:05;;;;;;;;;;;;;;;;;;5383322;26;20289;-68
2024/04/16 03:09:30;;;;;;;;;;;;;;;;;;5404572;26;19929;-66
2024/04/16 03:11:56;;;;;;;;;;;;;;;;;;5406378;26;19928;-66
2024/04/16 03:14:24;;;;;;;;;;;;;;;;;;5407443;26;19929;-68
2024/04/16 03:16:49;;;;;;;;;;;;;;;;;;5405048;26;20323;-67
2024/04/16 03:19:14;;;;;;;;;;;;;;;;;;5373496;26;19947;-68
2024/04/16 03:21:42;;;;;;;;;;;;;;;;;;5370948;26;22365;-69
2024/04/16 03:24:08;;;;;;;;;;;;;;;;;;5373353;26;19944;-69
2024/04/16 03:26:36;;;;;;;;;;;;;;;;;;5383331;26;19933;-70
2024/04/16 03:29:01;;;;;;;;;;;;;;;;;;5374119;26;20785;-68
2024/04/16 03:31:27;;;;;;;;;;;;;;;;;;5404635;26;19937;-69
2024/04/16 03:33:52;;;;;;;;;;;;;;;;;;5403996;26;20083;-69
2024/04/16 03:36:22;;;;;;;;;;;;;;;;;;5407508;26;19928;-71
2024/04/16 03:38:47;;;;;;;;;;;;;;;;;;5373845;26;19940;-70
2024/04/16 03:41:13;;;;;;;;;;;;;;;;;;5411313;26;19936;-70
2024/04/16 03:43:40;;;;;;;;;;;;;;;;;;5409656;26;19936;-70
2024/04/16 03:46:10;;;;;;;;;;;;;;;;;;5411288;26;19936;-69
2024/04/16 03:48:35;;;;;;;;;;;;;;;;;;5377010;26;20780;-71
2024/04/16 03:51:01;;;;;;;;;;;;;;;;;;5343362;26;19936;-70
2024/04/16 03:53:26;;;;;;;;;;;;;;;;;;5358225;26;19948;-69
2024/04/16 03:55:51;;;;;;;;;;;;;;;;;;5365617;26;19945;-69
2024/04/16 03:58:19;;;;;;;;;;;;;;;;;;5371331;26;19929;-68
2024/04/16 04:01:00;;;;;;;;;;;;;;;;;;5340594;26;19939;-69
2024/04/16 04:03:26;;;;;;;;;;;;;;;;;;5348215;26;19937;-67
2024/04/16 04:05:51;;;;;;;;;;;;;;;;;;5324205;26;19937;-68
2024/04/16 04:08:16;;;;;;;;;;;;;;;;;;5368391;26;19947;-68
2024/04/16 04:10:43;;;;;;;;;;;;;;;;;;5340850;26;19944;-66
2024/04/16 04:13:11;;;;;;;;;;;;;;;;;;5341990;26;19994;-68
2024/04/16 04:15:36;;;;;;;;;;;;;;;;;;5372077;26;19999;-68
2024/04/16 04:18:02;;;;;;;;;;;;;;;;;;5373395;26;20601;-67
2024/04/16 04:20:27;;;;;;;;;;;;;;;;;;5348546;26;19929;-68
2024/04/16 04:22:52;;;;;;;;;;;;;;;;;;5371909;26;19960;-67
2024/04/16 04:25:20;;;;;;;;;;;;;;;;;;5338955;26;19999;-68
2024/04/16 04:27:48;;;;;;;;;;;;;;;;;;5344986;26;19929;-67
2024/04/16 04:30:16;;;;;;;;;;;;;;;;;;5340156;26;19933;-66
2024/04/16 04:32:42;;;;;;;;;;;;;;;;;;5372957;26;19947;-67
2024/04/16 04:35:07;;;;;;;;;;;;;;;;;;5371074;26;20550;-69
2024/04/16 04:37:35;;;;;;;;;;;;;;;;;;5355921;26;20323;-68
2024/04/16 04:40:00;;;;;;;;;;;;;;;;;;5322530;26;19929;-67
2024/04/16 04:42:28;;;;;;;;;;;;;;;;;;5337050;26;19944;-67
2024/04/16 04:44:53;;;;;;;;;;;;;;;;;;5329963;26;19938;-68
2024/04/16 04:47:22;;;;;;;;;;;;;;;;;;5334325;26;19949;-68
2024/04/16 04:49:50;;;;;;;;;;;;;;;;;;5386938;26;20346;-67
2024/04/16 04:52:15;;;;;;;;;;;;;;;;;;5371834;26;20013;-67
2024/04/16 04:54:40;;;;;;;;;;;;;;;;;;5374226;26;19995;-68
2024/04/16 04:57:05;;;;;;;;;;;;;;;;;;5405852;26;19948;-66
2024/04/16 04:59:31;;;;;;;;;;;;;;;;;;5372180;26;20045;-68
2024/04/16 05:01:59;;;;;;;;;;;;;;;;;;5373573;26;20036;-68
2024/04/16 05:04:27;;;;;;;;;;;;;;;;;;5407103;26;19941;-67
2024/04/16 05:06:55;;;;;;;;;;;;;;;;;;5406508;26;19944;-68
2024/04/16 05:09:27;;;;;;;;;;;;;;;;;;5409748;26;19937;-68
2024/04/16 05:11:53;;;;;;;;;;;;;;;;;;5406141;26;20544;-67
2024/04/16 05:14:25;;;;;;;;;;;;;;;;;;5407770;26;19932;-68
2024/04/16 05:16:50;;;;;;;;;;;;;;;;;;5407787;26;20500;-68
2024/04/16 05:19:15;;;;;;;;;;;;;;;;;;5371186;26;19940;-66
2024/04/16 05:21:40;;;;;;;;;;;;;;;;;;5375446;26;20388;-66
2024/04/16 05:24:06;;;;;;;;;;;;;;;;;;5405146;26;20298;-67
2024/04/16 05:26:31;;;;;;;;;;;;;;;;;;5385716;26;19930;-67
2024/04/16 05:28:56;;;;;;;;;;;;;;;;;;5372635;26;20017;-67
2024/04/16 05:31:21;;;;;;;;;;;;;;;;;;5407383;26;19936;-67
2024/04/16 05:33:47;;;;;;;;;;;;;;;;;;5406459;26;19944;-66
2024/04/16 05:36:14;;;;;;;;;;;;;;;;;;5374603;26;20635;-68
2024/04/16 05:38:42;;;;;;;;;;;;;;;;;;5372327;26;19941;-67
2024/04/16 05:41:11;;;;;;;;;;;;;;;;;;5387186;26;20352;-67
2024/04/16 05:43:41;;;;;;;;;;;;;;;;;;5403015;26;20323;-67
2024/04/16 05:46:06;;;;;;;;;;;;;;;;;;5406143;26;20047;-67
2024/04/16 05:48:32;;;;;;;;;;;;;;;;;;5372734;26;20735;-67
2024/04/16 05:50:59;;;;;;;;;;;;;;;;;;5324825;26;20017;-68
2024/04/16 05:53:25;;;;;;;;;;;;;;;;;;5346265;26;19935;-68
2024/04/16 05:55:50;;;;;;;;;;;;;;;;;;5342568;26;19945;-66
2024/04/16 05:58:20;;;;;;;;;;;;;;;;;;5363684;26;19929;-68
2024/04/16 06:00:45;;;;;;;;;;;;;;;;;;5368604;26;19937;-68
2024/04/16 06:03:10;;;;;;;;;;;;;;;;;;5336349;26;20818;-70
2024/04/16 06:05:38;;;;;;;;;;;;;;;;;;5340273;26;19929;-70
2024/04/16 06:08:06;;;;;;;;;;;;;;;;;;5370893;26;19979;-69
2024/04/16 06:10:34;;;;;;;;;;;;;;;;;;5370941;26;19929;-68
2024/04/16 06:12:59;;;;;;;;;;;;;;;;;;5370934;26;19930;-67
2024/04/16 06:15:24;;;;;;;;;;;;;;;;;;5340995;26;19944;-68
2024/04/16 06:17:52;;;;;;;;;;;;;;;;;;5351701;26;19937;-67
2024/04/16 06:20:17;;;;;;;;;;;;;;;;;;5369797;26;19933;-68
2024/04/16 06:22:42;;;;;;;;;;;;;;;;;;5339192;26;19940;-70
2024/04/16 06:25:10;;;;;;;;;;;;;;;;;;5337703;26;19971;-68
2024/04/16 06:27:35;;;;;;;;;;;;;;;;;;5339347;26;19933;-68
2024/04/16 06:30:01;;;;;;;;;;;;;;;;;;5316487;26;20032;-68
2024/04/16 06:32:26;;;;;;;;;;;;;;;;;;5369877;26;19937;-68
2024/04/16 06:34:54;;;;;;;;;;;;;;;;;;5338354;26;19964;-68
2024/04/16 06:37:24;;;;;;;;;;;;;;;;;;5358209;26;19936;-68
2024/04/16 06:39:51;;;;;;;;;;;;;;;;;;5370164;26;19937;-68
2024/04/16 06:42:17;;;;;;;;;;;;;;;;;;5339825;26;19937;-67
2024/04/16 06:44:42;;;;;;;;;;;;;;;;;;5337465;26;19988;-67
2024/04/16 06:47:10;;;;;;;;;;;;;;;;;;5349625;26;19930;-67
2024/04/16 06:49:35;;;;;;;;;;;;;;;;;;5380550;26;20316;-66
2024/04/16 06:52:03;;;;;;;;;;;;;;;;;;5385531;26;19965;-67
2024/04/16 06:54:28;;;;;;;;;;;;;;;;;;5338619;26;20396;-66
2024/04/16 06:56:56;;;;;;;;;;;;;;;;;;5408566;26;19954;-66
2024/04/16 06:59:21;;;;;;;;;;;;;;;;;;5403472;26;20541;-66
2024/04/16 07:01:49;;;;;;;;;;;;;;;;;;5409028;26;19944;-66
2024/04/16 07:04:17;;;;;;;;;;;;;;;;;;5352519;26;19955;-65
2024/04/16 07:06:42;;;;;;;;;;;;;;;;;;5407133;26;19947;-66
2024/04/16 07:09:08;;;;;;;;;;;;;;;;;;5376474;26;19941;-65
2024/04/16 07:11:33;;;;;;;;;;;;;;;;;;5409599;26;20001;-66
2024/04/16 07:14:01;;;;;;;;;;;;;;;;;;5408343;26;19945;-66
2024/04/16 07:16:26;;;;;;;;;;;;;;;;;;5374207;26;20046;-66
2024/04/16 07:18:54;;;;;;;;;;;;;;;;;;5375692;26;20057;-66
2024/04/16 07:21:21;;;;;;;;;;;;;;;;;;5377254;26;20044;-66
2024/04/16 07:23:49;;;;;;;;;;;;;;;;;;5375294;26;19936;-66
2024/04/16 07:26:15;;;;;;;;;;;;;;;;;;5407086;26;19936;-66
2024/04/16 07:28:40;;;;;;;;;;;;;;;;;;5374872;26;20020;-67
2024/04/16 07:31:05;;;;;;;;;;;;;;;;;;5407323;26;20352;-67
2024/04/16 07:33:35;;;;;;;;;;;;;;;;;;5346629;26;19997;-67
2024/04/16 07:36:00;;;;;;;;;;;;;;;;;;5385460;26;19953;-67
2024/04/16 07:38:28;;;;;;;;;;;;;;;;;;5375410;26;20027;-68
2024/04/16 07:40:56;;;;;;;;;;;;;;;;;;5375919;26;19999;-67
2024/04/16 07:43:22;;;;;;;;;;;;;;;;;;5375884;26;19947;-66
2024/04/16 07:45:47;;;;;;;;;;;;;;;;;;5373122;26;19929;-66
2024/04/16 07:48:17;;;;;;;;;;;;;;;;;;5375000;26;19928;-65
2024/04/16 07:50:42;;;;;;;;;;;;;;;;;;5409555;26;19943;-66
2024/04/16 07:53:07;;;;;;;;;;;;;;;;;;5406945;26;20138;-65
2024/04/16 07:55:36;;;;;;;;;;;;;;;;;;5407801;26;22336;-66
2024/04/16 07:58:01;;;;;;;;;;;;;;;;;;5404639;26;19929;-66
2024/04/16 08:00:29;;;;;;;;;;;;;;;;;;5357894;26;19929;-66
2024/04/16 08:02:56;;;;;;;;;;;;;;;;;;5407886;26;19944;-66
2024/04/16 08:05:24;;;;;;;;;;;;;;;;;;5409680;26;19957;-66
2024/04/16 08:07:49;;;;;;;;;;;;;;;;;;5408675;26;19940;-66
2024/04/16 08:10:15;;;;;;;;;;;;;;;;;;5390211;26;19929;-66
2024/04/16 08:12:42;;;;;;;;;;;;;;;;;;5373862;26;20014;-66
2024/04/16 08:15:08;;;;;;;;;;;;;;;;;;5386262;26;19944;-65
2024/04/16 08:17:33;;;;;;;;;;;;;;;;;;5358875;26;19961;-65
2024/04/16 08:20:01;;;;;;;;;;;;;;;;;;5384455;26;19940;-65
2024/04/16 08:22:26;;;;;;;;;;;;;;;;;;5382023;26;19933;-66
2024/04/16 08:24:53;;;;;;;;;;;;;;;;;;5406798;26;19977;-65
2024/04/16 08:27:19;;;;;;;;;;;;;;;;;;5405322;26;19954;-66
2024/04/16 08:29:44;;;;;;;;;;;;;;;;;;5407156;26;19941;-66
2024/04/16 08:32:14;;;;;;;;;;;;;;;;;;5408473;26;20048;-66
2024/04/16 08:34:40;;;;;;;;;;;;;;;;;;5405776;26;19939;-65
2024/04/16 08:37:07;;;;;;;;;;;;;;;;;;5407291;26;19936;-65
2024/04/16 08:39:33;;;;;;;;;;;;;;;;;;5374090;26;19936;-66
2024/04/16 08:42:01;;;;;;;;;;;;;;;;;;5408900;26;20055;-66
2024/04/16 08:44:31;;;;;;;;;;;;;;;;;;5406884;26;20525;-65
2024/04/16 08:46:58;;;;;;;;;;;;;;;;;;5407751;26;19936;-65
2024/04/16 08:49:24;;;;;;;;;;;;;;;;;;5409098;26;19987;-65
2024/04/16 08:51:49;;;;;;;;;;;;;;;;;;5405450;26;19936;-66
2024/04/16 08:54:17;;;;;;;;;;;;;;;;;;5373399;26;19940;-65
2024/04/16 08:56:43;;;;;;;;;;;;;;;;;;5407122;26;20006;-65
2024/04/16 08:59:08;;;;;;;;;;;;;;;;;;5406808;26;20002;-65
2024/04/16 09:01:33;;;;;;;;;;;;;;;;;;5410116;26;19944;-65
2024/04/16 09:04:01;;;;;;;;;;;;;;;;;;5371059;26;20252;-66
2024/04/16 09:06:26;;;;;;;;;;;;;;;;;;5387886;26;19944;-64
2024/04/16 09:08:51;;;;;;;;;;;;;;;;;;5343068;26;20032;-65
2024/04/16 09:11:16;;;;;;;;;;;;;;;;;;5372214;26;20005;-65
2024/04/16 09:13:43;;;;;;;;;;;;;;;;;;5409439;26;20276;-65
2024/04/16 09:16:09;;;;;;;;;;;;;;;;;;5373129;26;19993;-64
2024/04/16 09:18:34;;;;;;;;;;;;;;;;;;5375149;26;20194;-65
2024/04/16 09:20:59;;;;;;;;;;;;;;;;;;5409175;26;20232;-64
2024/04/16 09:23:27;;;;;;;;;;;;;;;;;;5374610;26;19929;-66
2024/04/16 09:25:55;;;;;;;;;;;;;;;;;;5405401;26;19980;-65
2024/04/16 09:28:23;;;;;;;;;;;;;;;;;;5405697;26;20451;-66
2024/04/16 09:30:48;;;;;;;;;;;;;;;;;;5382125;26;20324;-66
2024/04/16 09:33:13;;;;;;;;;;;;;;;;;;5372779;26;19929;-65
2024/04/16 09:35:41;;;;;;;;;;;;;;;;;;5404489;26;19940;-67
2024/04/16 09:38:07;;;;;;;;;;;;;;;;;;5406315;26;20056;-67
2024/04/16 09:40:32;;;;;;;;;;;;;;;;;;5374693;26;20037;-66
2024/04/16 09:42:57;;;;;;;;;;;;;;;;;;5408029;26;19933;-66
2024/04/16 09:45:25;;;;;;;;;;;;;;;;;;5407813;26;19975;-66
2024/04/16 09:47:50;;;;;;;;;;;;;;;;;;5405366;26;20941;-65
2024/04/16 09:50:16;;;;;;;;;;;;;;;;;;5407517;26;19936;-66
2024/04/16 09:52:41;;;;;;;;;;;;;;;;;;5404317;26;20352;-64
2024/04/16 09:55:09;;;;;;;;;;;;;;;;;;5374279;26;19941;-65
2024/04/16 09:57:37;;;;;;;;;;;;;;;;;;5372486;26;19929;-65
2024/04/16 10:00:03;;;;;;;;;;;;;;;;;;5408052;26;19932;-65
2024/04/16 10:02:28;;;;;;;;;;;;;;;;;;5408303;26;21317;-66
2024/04/16 10:04:56;;;;;;;;;;;;;;;;;;5370301;26;19979;-66
2024/04/16 10:07:21;;;;;;;;;;;;;;;;;;5407580;26;19944;-67
2024/04/16 10:09:49;;;;;;;;;;;;;;;;;;5404359;26;19933;-67
2024/04/16 10:12:17;;;;;;;;;;;;;;;;;;5407916;26;20023;-66
2024/04/16 10:14:46;;;;;;;;;;;;;;;;;;5373665;26;19936;-65
2024/04/16 10:17:11;;;;;;;;;;;;;;;;;;5407178;26;19947;-66
2024/04/16 10:19:38;;;;;;;;;;;;;;;;;;5405595;26;19943;-66
2024/04/16 10:22:10;;;;;;;;;;;;;;;;;;5405505;26;20644;-66
2024/04/16 10:24:36;;;;;;;;;;;;;;;;;;5403753;26;20015;-65
2024/04/16 10:27:01;;;;;;;;;;;;;;;;;;5383840;26;19954;-65
2024/04/16 10:29:32;;;;;;;;;;;;;;;;;;5404508;26;19965;-66
2024/04/16 10:31:58;;;;;;;;;;;;;;;;;;5357133;26;20653;-67
2024/04/16 10:34:23;;;;;;;;;;;;;;;;;;5386552;26;20023;-65
2024/04/16 10:36:49;;;;;;;;;;;;;;;;;;5341726;26;19929;-66
2024/04/16 10:39:17;;;;;;;;;;;;;;;;;;5408034;26;19944;-68
2024/04/16 10:41:46;;;;;;;;;;;;;;;;;;5371915;26;19940;-66
2024/04/16 10:44:12;;;;;;;;;;;;;;;;;;5372747;26;21043;-66
2024/04/16 10:46:40;;;;;;;;;;;;;;;;;;5371775;26;19937;-65
2024/04/16 10:49:07;;;;;;;;;;;;;;;;;;5404659;26;19957;-64
2024/04/16 10:51:33;;;;;;;;;;;;;;;;;;5404589;26;20179;-65
2024/04/16 10:53:58;;;;;;;;;;;;;;;;;;5398250;26;20357;-67
2024/04/16 10:56:23;;;;;;;;;;;;;;;;;;5405049;26;19997;-65
2024/04/16 10:58:51;;;;;;;;;;;;;;;;;;5371358;26;22760;-66
2024/04/16 11:01:23;;;;;;;;;;;;;;;;;;5404314;26;19943;-64
2024/04/16 11:03:51;;;;;;;;;;;;;;;;;;5373222;26;19929;-65
2024/04/16 11:06:19;;;;;;;;;;;;;;;;;;5406331;26;19932;-66
2024/04/16 11:08:44;;;;;;;;;;;;;;;;;;5370174;26;20042;-65
2024/04/16 11:11:13;;;;;;;;;;;;;;;;;;5404192;26;19929;-66
2024/04/16 11:13:38;;;;;;;;;;;;;;;;;;5375780;26;19936;-65
2024/04/16 11:16:06;;;;;;;;;;;;;;;;;;5371373;26;20034;-66
2024/04/16 11:18:31;;;;;;;;;;;;;;;;;;5373078;26;20605;-66
2024/04/16 11:20:57;;;;;;;;;;;;;;;;;;5407374;26;19936;-66
2024/04/16 11:23:27;;;;;;;;;;;;;;;;;;5403474;26;19945;-64
2024/04/16 11:25:52;;;;;;;;;;;;;;;;;;5405145;26;19936;-66
2024/04/16 11:28:20;;;;;;;;;;;;;;;;;;5404819;26;19944;-65
2024/04/16 11:30:45;;;;;;;;;;;;;;;;;;5382246;26;19944;-66
2024/04/16 11:33:13;;;;;;;;;;;;;;;;;;5405847;26;19952;-64
2024/04/16 11:35:40;;;;;;;;;;;;;;;;;;5370915;26;19947;-65
2024/04/16 11:38:08;;;;;;;;;;;;;;;;;;5402944;26;20023;-64
2024/04/16 11:40:36;;;;;;;;;;;;;;;;;;5377221;26;19941;-65
2024/04/16 11:43:01;;;;;;;;;;;;;;;;;;5403725;26;19936;-65
2024/04/16 11:45:27;;;;;;;;;;;;;;;;;;5404228;26;20020;-66
2024/04/16 11:47:52;;;;;;;;;;;;;;;;;;5404354;26;19978;-66
2024/04/16 11:50:18;;;;;;;;;;;;;;;;;;5363222;26;20510;-65
2024/04/16 11:52:43;;;;;;;;;;;;;;;;;;5347513;26;20103;-65
2024/04/16 11:55:08;;;;;;;;;;;;;;;;;;5368919;26;19976;-67
2024/04/16 11:57:34;;;;;;;;;;;;;;;;;;5368155;26;20764;-66
2024/04/16 11:59:59;;;;;;;;;;;;;;;;;;5352025;26;19990;-67
2024/04/16 12:02:27;;;;;;;;;;;;;;;;;;5344132;26;19933;-66
2024/04/16 12:04:53;;;;;;;;;;;;;;;;;;5372012;26;19929;-66
2024/04/16 12:07:19;;;;;;;;;;;;;;;;;;5359646;26;19938;-67
2024/04/16 12:09:45;;;;;;;;;;;;;;;;;;5306007;26;20254;-66
2024/04/16 12:12:10;;;;;;;;;;;;;;;;;;5353569;26;19944;-65
2024/04/16 12:14:35;;;;;;;;;;;;;;;;;;5348624;26;20411;-65
2024/04/16 12:17:01;;;;;;;;;;;;;;;;;;5350815;26;19952;-66
2024/04/16 12:19:26;;;;;;;;;;;;;;;;;;5371880;26;20355;-66
2024/04/16 12:21:54;;;;;;;;;;;;;;;;;;5362178;26;19941;-66
2024/04/16 12:24:19;;;;;;;;;;;;;;;;;;5333239;26;20285;-65
2024/04/16 12:26:44;;;;;;;;;;;;;;;;;;5362990;26;19941;-67
2024/04/16 12:29:10;;;;;;;;;;;;;;;;;;5361851;26;19930;-67
2024/04/16 12:31:35;;;;;;;;;;;;;;;;;;5371856;26;19941;-66
2024/04/16 12:34:01;;;;;;;;;;;;;;;;;;5339438;26;19936;-66
2024/04/16 12:36:27;;;;;;;;;;;;;;;;;;5342982;26;19933;-65
2024/04/16 12:38:52;;;;;;;;;;;;;;;;;;5342318;26;19948;-67
2024/04/16 12:41:18;;;;;;;;;;;;;;;;;;5304776;26;20408;-67
2024/04/16 12:43:43;;;;;;;;;;;;;;;;;;5371555;26;19988;-66
2024/04/16 12:46:08;;;;;;;;;;;;;;;;;;5356946;26;19939;-68
2024/04/16 12:48:35;;;;;;;;;;;;;;;;;;5340363;26;20007;-65
2024/04/16 12:51:01;;;;;;;;;;;;;;;;;;5323219;26;21052;-65
2024/04/16 12:53:30;;;;;;;;;;;;;;;;;;5336930;26;20540;-66
2024/04/16 12:55:56;;;;;;;;;;;;;;;;;;5309194;26;20393;-66
2024/04/16 12:58:27;;;;;;;;;;;;;;;;;;5342341;26;20394;-69
2024/04/16 13:01:38;;;;;;;;;;;;;;;;;;5331191;26;19937;-65
2024/04/16 13:04:07;;;;;;;;;;;;;;;;;;5294426;26;19958;-65
2024/04/16 13:06:34;;;;;;;;;;;;;;;;;;5332984;26;19992;-66
2024/04/16 13:09:02;;;;;;;;;;;;;;;;;;5329145;26;19936;-65
2024/04/16 13:11:28;;;;;;;;;;;;;;;;;;5298379;26;20559;-68
2024/04/16 13:13:53;;;;;;;;;;;;;;;;;;5307858;26;19979;-66
2024/04/16 13:16:18;;;;;;;;;;;;;;;;;;5330019;26;19929;-65
2024/04/16 13:18:43;;;;;;;;;;;;;;;;;;5332027;26;19941;-65
2024/04/16 13:21:18;;;;;;;;;;;;;;;;;;5325568;26;20896;-65
2024/04/16 13:23:46;;;;;;;;;;;;;;;;;;5292311;26;20362;-65
2024/04/16 13:26:11;;;;;;;;;;;;;;;;;;5298031;26;19979;-64
2024/04/16 13:28:36;;;;;;;;;;;;;;;;;;5329495;26;20065;-64
2024/04/16 13:31:04;;;;;;;;;;;;;;;;;;5330543;26;19946;-64
2024/04/16 13:33:29;;;;;;;;;;;;;;;;;;5365273;26;20008;-64
2024/04/16 13:35:55;;;;;;;;;;;;;;;;;;5335020;26;19937;-65
2024/04/16 13:38:23;;;;;;;;;;;;;;;;;;5337315;26;19989;-66
2024/04/16 13:40:48;;;;;;;;;;;;;;;;;;5342075;26;20744;-65
2024/04/16 13:43:16;;;;;;;;;;;;;;;;;;5359110;26;20003;-65
2024/04/16 13:45:42;;;;;;;;;;;;;;;;;;5354366;26;19941;-64
2024/04/16 13:48:10;;;;;;;;;;;;;;;;;;5339136;26;19938;-63
2024/04/16 13:50:38;;;;;;;;;;;;;;;;;;5352087;26;19940;-64
2024/04/16 13:53:04;;;;;;;;;;;;;;;;;;5402006;26;21618;-65
2024/04/16 13:55:29;;;;;;;;;;;;;;;;;;5402913;26;19932;-66
2024/04/16 13:57:54;;;;;;;;;;;;;;;;;;5406603;26;19933;-65
2024/04/16 14:00:19;;;;;;;;;;;;;;;;;;5405017;26;19967;-64
2024/04/16 14:02:45;;;;;;;;;;;;;;;;;;5371169;26;20362;-65
2024/04/16 14:05:12;;;;;;;;;;;;;;;;;;5391547;26;20033;-64
2024/04/16 14:07:37;;;;;;;;;;;;;;;;;;5371273;26;19965;-64
2024/04/16 14:10:07;;;;;;;;;;;;;;;;;;5402896;26;22356;-64
2024/04/16 14:12:32;;;;;;;;;;;;;;;;;;5403779;26;22533;-66
2024/04/16 14:14:58;;;;;;;;;;;;;;;;;;5373537;26;19929;-65
2024/04/16 14:17:23;;;;;;;;;;;;;;;;;;5403973;26;22446;-65
2024/04/16 14:19:51;;;;;;;;;;;;;;;;;;5381020;26;19929;-65
2024/04/16 14:22:16;;;;;;;;;;;;;;;;;;5371503;26;21235;-66
2024/04/16 14:24:41;;;;;;;;;;;;;;;;;;5408403;26;19942;-67
2024/04/16 14:27:07;;;;;;;;;;;;;;;;;;5393883;26;19940;-66
2024/04/16 14:29:32;;;;;;;;;;;;;;;;;;5406367;26;20514;-65
2024/04/16 14:31:57;;;;;;;;;;;;;;;;;;5405861;26;19968;-66
2024/04/16 14:34:24;;;;;;;;;;;;;;;;;;5388786;26;19941;-66
2024/04/16 14:36:55;;;;;;;;;;;;;;;;;;5404514;26;19962;-67
2024/04/16 14:39:20;;;;;;;;;;;;;;;;;;5370695;26;20007;-66
2024/04/16 14:41:48;;;;;;;;;;;;;;;;;;5381485;26;20422;-67
2024/04/16 14:44:14;;;;;;;;;;;;;;;;;;5374404;26;19982;-66
2024/04/16 14:46:40;;;;;;;;;;;;;;;;;;5387442;26;19936;-67
2024/04/16 14:49:08;;;;;;;;;;;;;;;;;;5374359;26;19940;-65
2024/04/16 14:51:33;;;;;;;;;;;;;;;;;;5364321;26;19937;-66
2024/04/16 14:54:02;;;;;;;;;;;;;;;;;;5347049;26;20059;-67
2024/04/16 14:56:33;;;;;;;;;;;;;;;;;;5313020;26;19953;-69
2024/04/16 14:58:59;;;;;;;;;;;;;;;;;;5287927;26;19929;-68
2024/04/16 15:01:24;;;;;;;;;;;;;;;;;;5339356;26;19936;-66
2024/04/16 15:03:52;;;;;;;;;;;;;;;;;;5333840;26;19941;-66
2024/04/16 15:06:23;;;;;;;;;;;;;;;;;;5338763;26;20393;-67
2024/04/16 15:08:48;;;;;;;;;;;;;;;;;;5318935;26;20068;-66
2024/04/16 15:11:13;;;;;;;;;;;;;;;;;;5363835;26;20701;-66
2024/04/16 15:13:41;;;;;;;;;;;;;;;;;;5370754;26;20418;-66
2024/04/16 15:16:06;;;;;;;;;;;;;;;;;;5348568;26;19967;-65
2024/04/16 15:18:34;;;;;;;;;;;;;;;;;;5339010;26;20009;-67
2024/04/16 15:21:00;;;;;;;;;;;;;;;;;;5339377;26;19937;-67
2024/04/16 15:23:28;;;;;;;;;;;;;;;;;;5346875;26;19945;-69
2024/04/16 15:25:53;;;;;;;;;;;;;;;;;;5319364;26;19941;-68
2024/04/16 15:28:19;;;;;;;;;;;;;;;;;;5370405;26;20423;-68
2024/04/16 15:30:44;;;;;;;;;;;;;;;;;;5341433;26;19944;-66
2024/04/16 15:33:10;;;;;;;;;;;;;;;;;;5339984;26;19995;-67
2024/04/16 15:35:36;;;;;;;;;;;;;;;;;;5368735;26;19941;-67
2024/04/16 15:38:04;;;;;;;;;;;;;;;;;;5340700;26;20067;-65
2024/04/16 15:40:41;;;;;;;;;;;;;;;;;;5343780;26;19938;-67
2024/04/16 15:43:06;;;;;;;;;;;;;;;;;;5348302;26;19936;-67
2024/04/16 15:45:31;;;;;;;;;;;;;;;;;;5337590;26;19996;-66
2024/04/16 15:47:59;;;;;;;;;;;;;;;;;;5333196;26;20408;-66
2024/04/16 15:50:24;;;;;;;;;;;;;;;;;;5350907;26;22013;-67
2024/04/16 15:52:49;;;;;;;;;;;;;;;;;;5403062;26;20170;-67
2024/04/16 15:55:15;;;;;;;;;;;;;;;;;;5407213;26;19943;-66
2024/04/16 15:57:40;;;;;;;;;;;;;;;;;;5377652;26;20213;-67
2024/04/16 16:00:05;;;;;;;;;;;;;;;;;;5396309;26;19936;-67
2024/04/16 16:02:31;;;;;;;;;;;;;;;;;;5357932;26;19942;-67
2024/04/16 16:04:56;;;;;;;;;;;;;;;;;;5376230;26;20055;-67
2024/04/16 16:07:21;;;;;;;;;;;;;;;;;;5372859;26;19978;-66
2024/04/16 16:09:46;;;;;;;;;;;;;;;;;;5357008;26;19968;-67
2024/04/16 16:12:12;;;;;;;;;;;;;;;;;;5380886;26;19932;-66
2024/04/16 16:14:38;;;;;;;;;;;;;;;;;;5406722;26;20007;-67
2024/04/16 16:17:04;;;;;;;;;;;;;;;;;;5407328;26;19962;-67
2024/04/16 16:19:29;;;;;;;;;;;;;;;;;;5359858;26;19936;-68
2024/04/16 16:21:57;;;;;;;;;;;;;;;;;;5406891;26;19943;-68
2024/04/16 16:24:25;;;;;;;;;;;;;;;;;;5406625;26;19936;-67
2024/04/16 16:26:53;;;;;;;;;;;;;;;;;;5398055;26;19937;-67
2024/04/16 16:29:19;;;;;;;;;;;;;;;;;;5374795;26;19944;-67
2024/04/16 16:31:44;;;;;;;;;;;;;;;;;;5371948;26;20482;-67
2024/04/16 16:34:09;;;;;;;;;;;;;;;;;;5371428;26;19991;-67
2024/04/16 16:36:37;;;;;;;;;;;;;;;;;;5379211;26;19961;-66
2024/04/16 16:39:05;;;;;;;;;;;;;;;;;;5405950;26;20018;-69
2024/04/16 16:41:31;;;;;;;;;;;;;;;;;;5344414;26;19929;-68